createdAt,value
2023-04-10T00:00:56.857Z,96623.19
2023-04-10T00:03:24.616Z,96610.78
2023-04-10T00:05:51.287Z,96607.91
2023-04-10T00:08:17.802Z,96603.59
2023-04-10T00:10:44.258Z,96619.47
2023-04-10T00:13:11.013Z,96619.31
2023-04-10T00:15:37.508Z,96618.09
2023-04-10T00:18:04.037Z,96610.72
2023-04-10T00:20:30.568Z,96613.81
2023-04-10T00:22:57.101Z,96612.66
2023-04-10T00:25:23.660Z,96603.97
2023-04-10T00:27:50.267Z,96601.28
2023-04-10T00:30:16.756Z,96595.06
2023-04-10T00:32:43.874Z,96602.16
2023-04-10T00:35:10.498Z,96597.03
2023-04-10T00:37:37.264Z,96589.09
2023-04-10T00:40:06.156Z,96595.31
2023-04-10T00:42:33.026Z,96591.91
2023-04-10T00:45:00.284Z,96585.75
2023-04-10T00:47:28.143Z,96572.78
2023-04-10T00:49:55.350Z,96569.22
2023-04-10T00:52:22.696Z,96577.81
2023-04-10T00:54:49.378Z,96578.97
2023-04-10T00:57:19.394Z,96578.44
2023-04-10T00:59:46.440Z,96582.09
2023-04-10T01:02:13.273Z,96573.69
2023-04-10T01:04:40.952Z,96575.91
2023-04-10T01:07:23.604Z,96581.50
2023-04-10T01:10:02.131Z,96581.75
2023-04-10T01:12:49.364Z,96579.78
2023-04-10T01:15:19.958Z,96578.59
2023-04-10T01:17:57.274Z,96580.91
2023-04-10T01:20:26.730Z,96574.72
2023-04-10T01:23:05.750Z,96555.72
2023-04-10T01:25:39.323Z,96575.38
2023-04-10T01:28:24.759Z,96586.50
2023-04-10T01:30:59.140Z,96576.75
2023-04-10T01:33:33.441Z,96577.00
2023-04-10T01:36:05.169Z,96568.59
2023-04-10T01:38:33.944Z,96555.00
2023-04-10T01:41:02.323Z,96561.53
2023-04-10T01:43:32.056Z,96564.75
2023-04-10T01:46:00.510Z,96557.81
2023-04-10T01:48:27.898Z,96557.44
2023-04-10T01:50:56.319Z,96561.84
2023-04-10T01:53:24.615Z,96554.44
2023-04-10T01:55:53.607Z,96552.44
2023-04-10T01:58:20.627Z,96545.88
2023-04-10T02:00:47.174Z,96544.91
2023-04-10T02:03:15.650Z,96548.69
2023-04-10T02:06:16.278Z,96546.91
2023-04-10T02:09:09.490Z,96554.91
2023-04-10T02:11:50.692Z,96548.31
2023-04-10T02:14:20.486Z,96545.72
2023-04-10T02:16:48.282Z,96548.13
2023-04-10T02:19:16.807Z,96537.75
2023-04-10T02:21:44.690Z,96536.56
2023-04-10T02:24:11.254Z,96545.13
2023-04-10T02:26:51.390Z,96542.75
2023-04-10T02:29:18.551Z,96544.69
2023-04-10T02:31:46.150Z,96548.50
2023-04-10T02:34:13.957Z,96544.91
2023-04-10T02:36:40.785Z,96543.31
2023-04-10T02:39:09.236Z,96551.72
2023-04-10T02:41:45.158Z,96554.75
2023-04-10T02:44:14.120Z,96555.75
2023-04-10T02:46:42.021Z,96543.16
2023-04-10T02:49:08.876Z,96560.72
2023-04-10T02:51:36.419Z,96560.56
2023-04-10T02:54:04.481Z,96566.53
2023-04-10T02:56:34.777Z,96551.94
2023-04-10T02:59:01.537Z,96556.56
2023-04-10T03:01:29.026Z,96555.78
2023-04-10T03:03:56.759Z,96550.59
2023-04-10T03:06:27.876Z,96552.97
2023-04-10T03:08:56.441Z,96537.81
2023-04-10T03:11:23.009Z,96549.19
2023-04-10T03:13:49.963Z,96548.22
2023-04-10T03:16:18.700Z,96548.59
2023-04-10T03:18:46.737Z,96542.81
2023-04-10T03:21:13.312Z,96538.00
2023-04-10T03:23:39.828Z,96535.41
2023-04-10T03:26:06.663Z,96539.22
2023-04-10T03:28:37.764Z,96534.63
2023-04-10T03:31:05.776Z,96547.41
2023-04-10T03:33:35.466Z,96544.78
2023-04-10T03:36:02.678Z,96545.63
2023-04-10T03:38:29.201Z,96542.22
2023-04-10T03:40:56.034Z,96543.81
2023-04-10T03:43:25.786Z,96541.22
2023-04-10T03:45:52.438Z,96552.41
2023-04-10T03:48:20.838Z,96551.81
2023-04-10T03:50:47.453Z,96541.22
2023-04-10T03:53:15.335Z,96547.41
2023-04-10T03:55:41.860Z,96549.63
2023-04-10T03:58:09.378Z,96557.59
2023-04-10T04:00:36.954Z,96552.59
2023-04-10T04:03:13.179Z,96547.03
2023-04-10T04:06:03.326Z,96553.41
2023-04-10T04:08:38.716Z,96555.59
2023-04-10T04:11:23.890Z,96556.59
2023-04-10T04:14:21.182Z,96546.22
2023-04-10T04:16:56.848Z,96548.63
2023-04-10T04:19:41.877Z,96551.22
2023-04-10T04:22:21.107Z,96548.41
2023-04-10T04:25:11.702Z,96543.44
2023-04-10T04:28:02.520Z,96551.41
2023-04-10T04:30:33.690Z,96553.00
2023-04-10T04:33:18.553Z,96556.19
2023-04-10T04:36:20.217Z,96544.22
2023-04-10T04:38:58.432Z,96562.19
2023-04-10T04:41:45.174Z,96557.00
2023-04-10T04:44:19.816Z,96568.81
2023-04-10T04:46:47.003Z,96572.00
2023-04-10T04:49:41.348Z,96557.41
2023-04-10T04:52:17.394Z,96568.81
2023-04-10T04:55:00.586Z,96574.59
2023-04-10T04:57:53.634Z,96578.56
2023-04-10T05:00:28.282Z,96526.84
2023-04-10T05:03:28.759Z,96570.41
2023-04-10T05:06:03.703Z,96575.19
2023-04-10T05:08:47.153Z,96573.19
2023-04-10T05:11:42.795Z,96580.78
2023-04-10T05:14:28.011Z,96583.16
2023-04-10T05:17:18.528Z,96565.19
2023-04-10T05:20:06.101Z,96559.38
2023-04-10T05:22:58.258Z,96561.38
2023-04-10T05:25:54.460Z,96560.16
2023-04-10T05:28:37.168Z,96539.59
2023-04-10T05:31:23.529Z,96564.91
2023-04-10T05:33:55.967Z,96570.31
2023-04-10T05:36:33.122Z,96571.50
2023-04-10T05:39:18.262Z,96547.50
2023-04-10T05:41:58.362Z,96576.59
2023-04-10T05:44:30.625Z,96572.41
2023-04-10T05:47:02.665Z,96592.31
2023-04-10T05:49:46.309Z,96590.88
2023-04-10T05:52:21.619Z,96564.03
2023-04-10T05:55:09.799Z,96588.00
2023-04-10T05:57:55.169Z,96586.56
2023-04-10T06:00:38.498Z,96589.66
2023-04-10T06:03:27.477Z,96598.41
2023-04-10T06:05:58.466Z,96597.06
2023-04-10T06:08:25.457Z,96597.38
2023-04-10T06:10:52.872Z,96599.25
2023-04-10T06:13:19.472Z,96598.22
2023-04-10T06:15:46.031Z,96603.97
2023-04-10T06:18:12.571Z,96604.25
2023-04-10T06:20:39.146Z,96602.38
2023-04-10T06:23:06.359Z,96598.22
2023-04-10T06:25:33.278Z,96582.16
2023-04-10T06:28:00.356Z,96579.31
2023-04-10T06:30:26.859Z,96592.78
2023-04-10T06:32:53.507Z,96591.88
2023-04-10T06:35:21.380Z,96584.72
2023-04-10T06:37:48.493Z,96587.47
2023-04-10T06:40:16.223Z,96592.03
2023-04-10T06:42:42.991Z,96580.75
2023-04-10T06:45:15.297Z,96581.31
2023-04-10T06:47:41.835Z,96584.69
2023-04-10T06:50:08.836Z,96586.59
2023-04-10T06:52:35.490Z,96577.78
2023-04-10T06:55:02.094Z,96577.50
2023-04-10T06:57:28.915Z,96565.06
2023-04-10T06:59:55.455Z,96568.84
2023-04-10T07:02:22.207Z,96568.06
2023-04-10T07:04:49.130Z,96573.88
2023-04-10T07:07:16.080Z,96566.72
2023-04-10T07:09:43.714Z,96552.03
2023-04-10T07:12:10.363Z,96562.63
2023-04-10T07:14:36.931Z,96569.91
2023-04-10T07:17:03.612Z,96555.59
2023-04-10T07:19:30.272Z,96547.28
2023-04-10T07:21:56.889Z,96557.06
2023-04-10T07:24:23.696Z,96550.31
2023-04-10T07:26:50.334Z,96561.16
2023-04-10T07:29:16.793Z,96565.88
2023-04-10T07:31:43.440Z,96557.44
2023-04-10T07:34:11.246Z,96559.75
2023-04-10T07:36:37.787Z,96553.56
2023-04-10T07:39:04.366Z,96562.50
2023-04-10T07:41:31.210Z,96570.25
2023-04-10T07:43:57.670Z,96557.94
2023-04-10T07:46:24.201Z,96563.94
2023-04-10T07:48:50.827Z,96559.97
2023-04-10T07:51:17.449Z,96558.44
2023-04-10T07:53:43.965Z,96549.66
2023-04-10T07:56:19.134Z,96556.69
2023-04-10T07:58:46.378Z,96560.59
2023-04-10T08:01:13.424Z,96559.47
2023-04-10T08:03:41.879Z,96551.16
2023-04-10T08:06:09.613Z,96551.25
2023-04-10T08:08:37.824Z,96535.69
2023-04-10T08:11:23.302Z,96550.19
2023-04-10T08:13:51.991Z,96546.00
2023-04-10T08:16:26.531Z,96547.56
2023-04-10T08:18:54.576Z,96546.22
2023-04-10T08:21:22.250Z,96531.94
2023-04-10T08:23:52.966Z,96537.72
2023-04-10T08:26:19.755Z,96526.25
2023-04-10T08:28:50.081Z,96492.94
2023-04-10T08:31:18.826Z,96542.06
2023-04-10T08:33:45.586Z,96515.69
2023-04-10T08:36:13.360Z,96498.00
2023-04-10T08:38:41.177Z,96541.50
2023-04-10T08:41:13.223Z,96542.38
2023-04-10T08:43:40.659Z,96529.66
2023-04-10T08:46:07.494Z,96539.44
2023-04-10T08:48:47.963Z,96546.34
2023-04-10T08:51:20.329Z,96527.31
2023-04-10T08:53:51.555Z,96523.34
2023-04-10T08:56:19.187Z,96527.31
2023-04-10T08:58:46.208Z,96541.88
2023-04-10T09:01:14.900Z,96520.81
2023-04-10T09:03:41.624Z,96524.25
2023-04-10T09:06:08.836Z,96529.00
2023-04-10T09:08:35.893Z,96530.13
2023-04-10T09:11:02.514Z,96467.75
2023-04-10T09:13:36.208Z,96521.88
2023-04-10T09:16:03.060Z,96522.69
2023-04-10T09:18:50.693Z,96516.69
2023-04-10T09:21:21.648Z,96525.69
2023-04-10T09:23:51.913Z,96528.59
2023-04-10T09:26:27.525Z,96470.50
2023-04-10T09:29:01.629Z,96507.44
2023-04-10T09:31:30.519Z,96508.25
2023-04-10T09:34:12.519Z,96507.75
2023-04-10T09:36:41.693Z,96468.97
2023-04-10T09:39:09.780Z,96498.28
2023-04-10T09:41:54.854Z,96503.81
2023-04-10T09:44:35.047Z,96495.34
2023-04-10T09:47:13.601Z,96490.59
2023-04-10T09:49:52.379Z,96481.38
2023-04-10T09:52:29.912Z,96487.19
2023-04-10T09:54:58.642Z,96489.00
2023-04-10T09:57:27.435Z,96482.66
2023-04-10T10:00:05.457Z,96416.25
2023-04-10T10:02:38.953Z,96469.44
2023-04-10T10:05:11.176Z,96463.88
2023-04-10T10:07:38.734Z,96456.25
2023-04-10T10:10:07.298Z,96463.06
2023-04-10T10:12:49.566Z,96462.47
2023-04-10T10:15:36.488Z,96466.69
2023-04-10T10:18:27.484Z,96446.53
2023-04-10T10:20:54.873Z,96441.28
2023-04-10T10:23:23.613Z,96459.34
2023-04-10T10:25:54.455Z,96437.97
2023-04-10T10:28:25.424Z,96448.97
2023-04-10T10:30:59.231Z,96445.38
2023-04-10T10:33:32.123Z,96413.22
2023-04-10T10:36:00.255Z,96432.19
2023-04-10T10:38:28.239Z,96426.75
2023-04-10T10:41:02.462Z,96433.13
2023-04-10T10:43:53.768Z,96433.41
2023-04-10T10:46:37.973Z,96427.72
2023-04-10T10:49:04.412Z,96425.94
2023-04-10T10:51:46.652Z,96432.69
2023-04-10T10:54:47.224Z,96412.97
2023-04-10T10:57:56.270Z,96408.56
2023-04-10T11:00:27.001Z,96405.19
2023-04-10T11:03:08.863Z,96405.59
2023-04-10T11:05:57.038Z,96394.19
2023-04-10T11:08:47.688Z,96389.59
2023-04-10T11:11:25.423Z,96367.19
2023-04-10T11:13:52.106Z,96382.00
2023-04-10T11:16:24.493Z,96367.69
2023-04-10T11:18:59.361Z,96371.78
2023-04-10T11:21:57.022Z,96366.53
2023-04-10T11:24:23.565Z,96345.28
2023-04-10T11:26:50.478Z,96347.47
2023-04-10T11:29:17.243Z,96364.44
2023-04-10T11:31:45.625Z,96351.38
2023-04-10T11:34:12.521Z,96356.16
2023-04-10T11:36:41.434Z,96354.88
2023-04-10T11:39:13.415Z,96343.59
2023-04-10T11:41:41.694Z,96327.94
2023-04-10T11:44:10.797Z,96330.66
2023-04-10T11:46:46.829Z,96335.56
2023-04-10T11:49:21.412Z,96336.88
2023-04-10T11:51:49.220Z,96317.56
2023-04-10T11:54:17.915Z,96323.03
2023-04-10T11:56:54.589Z,96335.09
2023-04-10T11:59:21.024Z,96320.78
2023-04-10T12:01:47.544Z,96301.16
2023-04-10T12:04:16.391Z,96324.78
2023-04-10T12:06:53.032Z,96327.63
2023-04-10T12:09:21.091Z,96318.22
2023-04-10T12:11:56.848Z,96303.34
2023-04-10T12:14:28.904Z,96312.25
2023-04-10T12:16:56.356Z,96304.88
2023-04-10T12:19:23.618Z,96313.03
2023-04-10T12:21:50.188Z,96294.69
2023-04-10T12:24:48.767Z,96323.94
2023-04-10T12:27:23.719Z,96311.97
2023-04-10T12:29:52.236Z,96322.75
2023-04-10T12:32:19.049Z,96306.56
2023-04-10T12:34:53.196Z,96317.75
2023-04-10T12:37:20.607Z,96295.47
2023-04-10T12:39:47.086Z,96297.13
2023-04-10T12:42:23.401Z,96299.16
2023-04-10T12:44:58.741Z,96294.41
2023-04-10T12:47:26.393Z,96296.84
2023-04-10T12:50:10.875Z,96302.72
2023-04-10T12:52:40.271Z,96293.97
2023-04-10T12:55:12.843Z,96276.88
2023-04-10T12:57:41.348Z,96268.06
2023-04-10T13:00:09.824Z,96285.53
2023-04-10T13:02:37.980Z,96269.25
2023-04-10T13:05:06.036Z,96253.31
2023-04-10T13:07:32.694Z,96259.34
2023-04-10T13:09:59.968Z,96267.34
2023-04-10T13:12:27.188Z,96268.34
2023-04-10T13:14:54.545Z,96248.44
2023-04-10T13:17:21.887Z,96256.47
2023-04-10T13:19:48.576Z,96264.63
2023-04-10T13:22:15.196Z,96254.59
2023-04-10T13:24:42.738Z,96259.38
2023-04-10T13:27:09.729Z,96254.03
2023-04-10T13:29:37.189Z,96223.72
2023-04-10T13:32:05.410Z,96253.84
2023-04-10T13:34:32.833Z,96225.59
2023-04-10T13:36:59.769Z,96224.19
2023-04-10T13:39:31.241Z,96209.28
2023-04-10T13:42:02.049Z,96217.22
2023-04-10T13:44:28.643Z,96216.75
2023-04-10T13:46:55.191Z,96204.91
2023-04-10T13:49:22.133Z,96194.97
2023-04-10T13:51:49.177Z,96183.94
2023-04-10T13:54:17.312Z,96207.16
2023-04-10T13:56:44.591Z,96198.31
2023-04-10T13:59:11.186Z,96198.13
2023-04-10T14:01:37.934Z,96192.22
2023-04-10T14:04:04.611Z,96198.81
2023-04-10T14:06:31.797Z,96171.22
2023-04-10T14:08:58.607Z,96202.34
2023-04-10T14:11:25.874Z,96193.41
2023-04-10T14:13:52.566Z,96186.44
2023-04-10T14:16:19.300Z,96187.81
2023-04-10T14:18:45.809Z,96177.13
2023-04-10T14:21:12.265Z,96161.38
2023-04-10T14:23:38.711Z,96155.50
2023-04-10T14:26:06.515Z,96171.59
2023-04-10T14:28:33.376Z,96170.63
2023-04-10T14:30:59.942Z,96161.09
2023-04-10T14:33:26.600Z,96146.47
2023-04-10T14:35:53.584Z,96164.34
2023-04-10T14:38:20.075Z,96152.97
2023-04-10T14:40:49.817Z,96150.69
2023-04-10T14:43:16.757Z,96155.50
2023-04-10T14:45:43.272Z,96163.44
2023-04-10T14:48:09.883Z,96158.22
2023-04-10T14:50:36.419Z,96156.97
2023-04-10T14:53:02.914Z,96157.88
2023-04-10T14:55:29.991Z,96156.84
2023-04-10T14:57:58.355Z,96109.22
2023-04-10T15:00:25.518Z,96145.69
2023-04-10T15:02:52.329Z,96133.88
2023-04-10T15:05:19.152Z,96134.94
2023-04-10T15:07:45.834Z,96109.91
2023-04-10T15:10:12.319Z,96126.78
2023-04-10T15:12:38.952Z,96128.69
2023-04-10T15:15:06.513Z,96110.53
2023-04-10T15:17:33.274Z,96124.31
2023-04-10T15:19:59.716Z,96110.25
2023-04-10T15:22:27.072Z,96110.75
2023-04-10T15:24:53.621Z,96103.00
2023-04-10T15:27:21.190Z,96103.59
2023-04-10T15:29:47.699Z,96090.94
2023-04-10T15:32:14.158Z,96092.03
2023-04-10T15:34:40.689Z,96083.50
2023-04-10T15:37:07.174Z,96095.97
2023-04-10T15:39:33.668Z,96086.84
2023-04-10T15:42:00.394Z,96084.38
2023-04-10T15:44:27.065Z,96105.81
2023-04-10T15:46:53.632Z,96086.97
2023-04-10T15:49:29.951Z,96101.59
2023-04-10T15:52:03.592Z,96077.16
2023-04-10T15:54:30.086Z,96092.66
2023-04-10T15:56:57.439Z,96087.84
2023-04-10T15:59:25.192Z,96085.75
2023-04-10T16:01:52.943Z,96092.06
2023-04-10T16:04:19.608Z,96071.66
2023-04-10T16:06:46.436Z,96080.78
2023-04-10T16:09:24.893Z,96071.44
2023-04-10T16:11:53.464Z,96076.66
2023-04-10T16:14:20.052Z,96054.69
2023-04-10T16:16:46.651Z,96064.19
2023-04-10T16:19:13.189Z,96070.09
2023-04-10T16:21:39.784Z,96069.69
2023-04-10T16:24:06.501Z,96075.84
2023-04-10T16:26:32.936Z,96061.19
2023-04-10T16:28:59.376Z,96054.72
2023-04-10T16:31:26.325Z,96041.34
2023-04-10T16:33:53.033Z,96058.81
2023-04-10T16:36:19.497Z,96051.94
2023-04-10T16:38:52.558Z,96031.09
2023-04-10T16:41:20.749Z,96052.69
2023-04-10T16:43:47.628Z,96025.69
2023-04-10T16:46:14.217Z,96071.97
2023-04-10T16:48:40.724Z,96051.19
2023-04-10T16:51:15.824Z,96039.63
2023-04-10T16:53:44.121Z,96041.09
2023-04-10T16:56:11.017Z,96047.72
2023-04-10T16:58:38.096Z,96046.41
2023-04-10T17:01:15.717Z,96049.53
2023-04-10T17:03:42.432Z,96028.41
2023-04-10T17:06:08.896Z,96037.84
2023-04-10T17:08:35.869Z,96044.28
2023-04-10T17:11:02.309Z,96040.44
2023-04-10T17:13:29.305Z,96028.78
2023-04-10T17:15:55.767Z,96033.72
2023-04-10T17:18:22.856Z,96031.09
2023-04-10T17:20:49.533Z,96018.59
2023-04-10T17:23:16.106Z,96012.66
2023-04-10T17:25:42.605Z,96034.47
2023-04-10T17:28:09.084Z,96017.31
2023-04-10T17:30:35.594Z,95947.88
2023-04-10T17:33:02.092Z,96002.44
2023-04-10T17:35:28.660Z,96005.59
2023-04-10T17:37:55.504Z,96000.38
2023-04-10T17:40:22.158Z,96004.09
2023-04-10T17:42:48.753Z,96006.03
2023-04-10T17:45:15.316Z,96006.66
2023-04-10T17:47:41.828Z,95997.88
2023-04-10T17:50:09.581Z,95996.19
2023-04-10T17:52:36.276Z,95998.38
2023-04-10T17:55:02.984Z,95971.72
2023-04-10T17:57:29.446Z,96005.81
2023-04-10T17:59:55.921Z,95990.31
2023-04-10T18:02:22.456Z,95996.94
2023-04-10T18:04:49.102Z,96003.59
2023-04-10T18:07:17.997Z,95990.72
2023-04-10T18:09:45.426Z,95987.00
2023-04-10T18:12:12.015Z,95988.06
2023-04-10T18:14:38.521Z,95977.19
2023-04-10T18:17:05.307Z,95984.00
2023-04-10T18:19:31.844Z,95992.66
2023-04-10T18:21:58.375Z,95992.25
2023-04-10T18:24:24.918Z,95974.19
2023-04-10T18:26:51.481Z,95992.88
2023-04-10T18:29:18.029Z,95975.56
2023-04-10T18:31:44.459Z,95979.78
2023-04-10T18:34:12.172Z,95985.56
2023-04-10T18:36:38.850Z,95983.00
2023-04-10T18:39:05.412Z,95980.63
2023-04-10T18:41:35.154Z,95970.19
2023-04-10T18:44:06.185Z,95971.06
2023-04-10T18:46:33.319Z,95988.16
2023-04-10T18:49:00.955Z,95989.16
2023-04-10T18:51:28.042Z,95988.84
2023-04-10T18:53:54.846Z,95977.63
2023-04-10T18:56:21.663Z,95944.66
2023-04-10T18:58:49.943Z,95973.81
2023-04-10T19:01:20.572Z,95971.50
2023-04-10T19:03:50.013Z,95968.31
2023-04-10T19:06:17.776Z,95960.78
2023-04-10T19:08:44.332Z,95974.44
2023-04-10T19:11:12.134Z,95998.63
2023-04-10T19:13:38.576Z,95966.47
2023-04-10T19:16:05.430Z,95987.13
2023-04-10T19:18:32.285Z,95970.94
2023-04-10T19:20:59.087Z,95961.78
2023-04-10T19:23:26.517Z,95967.88
2023-04-10T19:25:56.110Z,95959.44
2023-04-10T19:28:23.583Z,95950.47
2023-04-10T19:30:50.300Z,95948.31
2023-04-10T19:33:17.204Z,95920.56
2023-04-10T19:35:43.801Z,95915.44
2023-04-10T19:38:10.282Z,95931.59
2023-04-10T19:40:37.125Z,95918.00
2023-04-10T19:43:03.997Z,95912.06
2023-04-10T19:45:32.396Z,95910.69
2023-04-10T19:47:59.355Z,95929.28
2023-04-10T19:50:28.923Z,95918.09
2023-04-10T19:52:55.674Z,95935.41
2023-04-10T19:55:22.236Z,95930.13
2023-04-10T19:57:51.801Z,95907.31
2023-04-10T20:00:19.701Z,95912.50
2023-04-10T20:02:46.479Z,95915.44
2023-04-10T20:05:13.374Z,95939.00
2023-04-10T20:07:40.131Z,95918.44
2023-04-10T20:10:07.231Z,95926.31
2023-04-10T20:12:33.880Z,95903.66
2023-04-10T20:15:00.936Z,95904.88
2023-04-10T20:17:29.460Z,95900.13
2023-04-10T20:19:57.741Z,95910.16
2023-04-10T20:22:25.317Z,95888.69
2023-04-10T20:24:51.777Z,95901.44
2023-04-10T20:27:18.455Z,95913.72
2023-04-10T20:29:44.949Z,95903.81
2023-04-10T20:32:13.184Z,95896.88
2023-04-10T20:34:39.680Z,95852.72
2023-04-10T20:37:06.173Z,95824.81
2023-04-10T20:39:33.530Z,95911.13
2023-04-10T20:42:00.214Z,95917.44
2023-04-10T20:44:27.721Z,95915.28
2023-04-10T20:46:54.237Z,95887.75
2023-04-10T20:49:20.767Z,95887.31
2023-04-10T20:51:48.496Z,95911.22
2023-04-10T20:54:15.330Z,95898.97
2023-04-10T20:56:43.819Z,95887.22
2023-04-10T20:59:11.106Z,95920.28
2023-04-10T21:01:38.576Z,95889.56
2023-04-10T21:04:05.654Z,95907.94
2023-04-10T21:06:36.578Z,95886.47
2023-04-10T21:09:03.249Z,95882.06
2023-04-10T21:11:29.754Z,95818.22
2023-04-10T21:13:56.296Z,95907.94
2023-04-10T21:16:22.757Z,95886.59
2023-04-10T21:18:49.275Z,95911.16
2023-04-10T21:21:15.926Z,95915.97
2023-04-10T21:23:42.374Z,95913.84
2023-04-10T21:26:08.944Z,95904.22
2023-04-10T21:28:36.252Z,95839.47
2023-04-10T21:31:10.448Z,95905.41
2023-04-10T21:33:37.576Z,95889.72
2023-04-10T21:36:06.414Z,95873.66
2023-04-10T21:38:34.272Z,95919.06
2023-04-10T21:41:04.558Z,95925.72
2023-04-10T21:43:31.719Z,95864.59
2023-04-10T21:46:00.330Z,95897.97
2023-04-10T21:48:31.668Z,95911.88
2023-04-10T21:50:58.810Z,95887.22
2023-04-10T21:53:25.610Z,95899.31
2023-04-10T21:55:56.215Z,95846.63
2023-04-10T21:58:25.454Z,95888.31
2023-04-10T22:00:54.789Z,95819.09
2023-04-10T22:03:22.660Z,95887.56
2023-04-10T22:05:50.617Z,95880.28
2023-04-10T22:08:20.356Z,95847.75
2023-04-10T22:10:48.100Z,95818.34
2023-04-10T22:13:27.333Z,95797.91
2023-04-10T22:15:57.953Z,95847.50
2023-04-10T22:18:24.730Z,95824.09
2023-04-10T22:20:51.768Z,95852.19
2023-04-10T22:23:18.513Z,95844.59
2023-04-10T22:25:45.147Z,95839.31
2023-04-10T22:28:11.695Z,95840.09
2023-04-10T22:30:38.550Z,95845.91
2023-04-10T22:33:06.301Z,95803.94
2023-04-10T22:35:33.399Z,95855.34
2023-04-10T22:37:59.926Z,95855.34
2023-04-10T22:40:26.391Z,95845.59
2023-04-10T22:42:52.913Z,95858.72
2023-04-10T22:45:19.397Z,95848.50
2023-04-10T22:47:45.835Z,95820.41
2023-04-10T22:50:12.403Z,95836.88
2023-04-10T22:52:39.021Z,95830.81
2023-04-10T22:55:08.822Z,95814.50
2023-04-10T22:57:35.533Z,95837.84
2023-04-10T23:00:02.069Z,95829.16
2023-04-10T23:02:28.621Z,95832.84
2023-04-10T23:04:57.598Z,95842.25
2023-04-10T23:07:25.737Z,95824.91
2023-04-10T23:09:52.216Z,95817.78
2023-04-10T23:12:18.817Z,95825.41
2023-04-10T23:14:45.344Z,95779.50
2023-04-10T23:17:11.764Z,95779.81
2023-04-10T23:19:38.221Z,95803.34
2023-04-10T23:22:05.066Z,95797.81
2023-04-10T23:24:31.560Z,95798.06
2023-04-10T23:26:58.029Z,95788.09
2023-04-10T23:29:24.751Z,95765.75
2023-04-10T23:31:51.204Z,95786.50
2023-04-10T23:34:18.783Z,95788.59
2023-04-10T23:36:45.250Z,95778.84
2023-04-10T23:39:12.515Z,95780.22
2023-04-10T23:41:41.547Z,95773.34
2023-04-10T23:44:08.999Z,95791.44
2023-04-10T23:46:35.451Z,95779.91
2023-04-10T23:49:01.970Z,95776.97
2023-04-10T23:51:31.948Z,95780.09
2023-04-10T23:53:58.776Z,95769.59
2023-04-10T23:56:29.162Z,95764.31
2023-04-10T23:58:56.928Z,95750.66
